Stephen R Warden — WDC6523 — position and weather

sailwx.info

Track history (hours):
 
Tides and Currents Weather Stations Pressure Air Temp Water Temp Dewpoint Dewpoint Depression Visibility Wind Speed Wind Dir Waves Ship Positions

Stephen R Warden

Owner: American Commercial Lines LLC, Jeffersonvile, IN. More information available from US FCC via Universal Licensing System and Coast Guard Vessel Documentation Center.

Last reported at 2016-Jul-01 11:06 UTC. Time now 2016-Jul-02 04:01 UTC.
Position N 29°46' W 090°01'.

Length 37 m; draft 3 m.

Type: Towing. MMSI: 367057460.

Date/timePositionNaut miles runAvg speedWind from/ knotsBaromVisibWave heightAir tempDewpointWater temp
2016-Jul-01 11:06N 29°46' W 090°01'5 7.3
2016-Jul-01 10:28N 29°50' W 089°60'5 4.9
2016-Jul-01 09:32N 29°52' W 089°55'6 5.7
2016-Jul-01 08:34N 29°56' W 089°59'2 2.2
2016-Jul-01 07:34N 29°57' W 090°01'4 3.7
2016-Jul-01 06:34N 29°55' W 090°05'4 4.3
2016-Jul-01 05:34N 29°57' W 090°09'1 0.1
2016-Jun-30 05:33N 29°57' W 090°10'2 2.5
2016-Jun-30 04:34N 29°55' W 090°08'4 4.1
2016-Jun-30 03:33N 29°56' W 090°04'2 2.5
2016-Jun-30 02:33N 29°57' W 090°01'0 0.0
2016-Jun-30 01:34N 29°57' W 090°01'3 2.8
2016-Jun-30 00:33N 29°55' W 089°58'2 2.2
2016-Jun-29 23:33N 29°55' W 089°55'0 0.0
2016-Jun-29 22:33N 29°55' W 089°55'0 0.0
2016-Jun-29 21:33N 29°55' W 089°55'0 0.0
2016-Jun-29 20:34N 29°55' W 089°55'0 0.1
2016-Jun-29 19:33N 29°55' W 089°55'0 0.0
2016-Jun-29 18:34N 29°55' W 089°55'3 2.8
2016-Jun-29 17:33N 29°52' W 089°56'4 3.8
2016-Jun-29 16:33N 29°50' W 089°60'6 5.0
2016-Jun-29 15:24N 29°44' W 089°60'2 0.2
2016-Jun-29 03:32N 29°46' W 090°01'7 7.4
2016-Jun-29 02:32N 29°53' W 089°58'4 3.9
2016-Jun-29 01:34N 29°55' W 089°55'4 3.6
2016-Jun-29 00:34N 29°56' W 089°59'0 0.1
2016-Jun-28 23:34N 29°56' W 089°59'0 0.0
2016-Jun-28 22:34N 29°56' W 089°59'0 0.0
2016-Jun-28 21:33N 29°56' W 089°59'0 0.0
2016-Jun-28 20:34N 29°56' W 089°59'1 1.0
2016-Jun-28 19:34N 29°57' W 090°00'0 0.3
2016-Jun-28 18:33N 29°57' W 090°01'0 0.2
2016-Jun-28 17:33N 29°57' W 090°01'2 2.5
2016-Jun-28 16:34N 29°56' W 090°03'5 4.6
2016-Jun-28 15:34N 29°57' W 090°09'4 3.8
2016-Jun-28 14:33N 29°55' W 090°13'1 0.0
2016-Jun-27 08:33N 29°56' W 090°12'0 0.0
2016-Jun-27 07:33N 29°56' W 090°12'0 0.1
2016-Jun-27 06:34N 29°56' W 090°12'3 3.2
2016-Jun-27 05:33N 29°55' W 090°08'5 5.3
2016-Jun-27 04:33N 29°57' W 090°03'6 5.9
2016-Jun-27 03:33N 29°55' W 089°56'3 3.1
2016-Jun-27 02:33N 29°52' W 089°56'4 4.0
2016-Jun-27 01:34N 29°50' W 089°60'6 0.9
2016-Jun-26 19:13N 29°44' W 089°60'4 5.7
2016-Jun-26 18:31N 29°48' W 090°01'6 5.9
2016-Jun-26 17:34N 29°53' W 089°57'3 2.7
2016-Jun-26 16:33N 29°55' W 089°56'7 6.6
2016-Jun-26 15:33N 29°58' W 090°03'5 5.1
2016-Jun-26 14:34N 29°55' W 090°08'2 2.3
2016-Jun-26 13:32N 29°57' W 090°10'4 3.5
2016-Jun-26 12:19N 29°58' W 090°15'  
2016-Jun-24 04:26N 29°56' W 090°12'0 0.0
2016-Jun-24 03:33N 29°56' W 090°12'0 0.0
2016-Jun-24 02:17N 29°56' W 090°12'0 0.0
2016-Jun-24 01:31N 29°56' W 090°12'2 1.6
2016-Jun-24 00:32N 29°57' W 090°10'3 3.1
2016-Jun-23 23:33N 29°55' W 090°07'4 4.1
2016-Jun-23 22:33N 29°57' W 090°03'3 2.5
2016-Jun-23 21:34N 29°57' W 090°01'6 4.0
2016-Jun-23 20:08N 29°54' W 089°55'2 3.6
2016-Jun-23 19:32N 29°52' W 089°55'6 3.1
2016-Jun-23 17:33N 29°48' W 090°01'0 0.0
2016-Jun-23 16:33N 29°48' W 090°01'0 0.0
2016-Jun-23 15:33N 29°48' W 090°01'0 0.0
2016-Jun-23 14:33N 29°48' W 090°01'1 1.2
2016-Jun-23 13:34N 29°47' W 090°01'3 0.5
2016-Jun-23 08:04N 29°44' W 089°60'5 7.0
2016-Jun-23 07:25N 29°49' W 090°00'8 4.1
2016-Jun-23 05:34N 29°56' W 089°60'6 6.4
2016-Jun-23 04:33N 29°55' W 090°07'4 4.3
2016-Jun-23 03:34N 29°56' W 090°12'0 0.0
2016-Jun-23 02:33N 29°56' W 090°12'0 0.0
2016-Jun-23 01:33N 29°56' W 090°12'0 0.0
2016-Jun-23 00:16N 29°56' W 090°12'0 0.3
2016-Jun-22 23:33N 29°56' W 090°11'1 1.0
2016-Jun-22 22:34N 29°56' W 090°11'0 0.0
2016-Jun-22 21:33N 29°56' W 090°11'0 0.4
2016-Jun-22 20:31N 29°56' W 090°11'3 2.6
2016-Jun-22 19:22N 29°58' W 090°14'  
Track history (hours):
 
Tides and Currents Weather Stations Pressure Air Temp Water Temp Dewpoint Dewpoint Depression Visibility Wind Speed Wind Dir Waves Ship Positions

Stephen R Warden

Owner: American Commercial Lines LLC, Jeffersonvile, IN. More information available from US FCC via Universal Licensing System and Coast Guard Vessel Documentation Center.

Last reported at 2016-Jul-01 11:06 UTC. Time now 2016-Jul-02 04:01 UTC.
Position N 29°46' W 090°01'.

Length 37 m; draft 3 m.

Type: Towing. MMSI: 367057460.

Date/timePositionNaut miles runAvg speedWind from/ knotsBaromVisibWave heightAir tempDewpointWater temp
2016-Jul-01 11:06N 29°46' W 090°01'5 7.3
2016-Jul-01 10:28N 29°50' W 089°60'5 4.9
2016-Jul-01 09:32N 29°52' W 089°55'6 5.7
2016-Jul-01 08:34N 29°56' W 089°59'2 2.2
2016-Jul-01 07:34N 29°57' W 090°01'4 3.7
2016-Jul-01 06:34N 29°55' W 090°05'4 4.3
2016-Jul-01 05:34N 29°57' W 090°09'1 0.1
2016-Jun-30 05:33N 29°57' W 090°10'2 2.5
2016-Jun-30 04:34N 29°55' W 090°08'4 4.1
2016-Jun-30 03:33N 29°56' W 090°04'2 2.5
2016-Jun-30 02:33N 29°57' W 090°01'0 0.0
2016-Jun-30 01:34N 29°57' W 090°01'3 2.8
2016-Jun-30 00:33N 29°55' W 089°58'2 2.2
2016-Jun-29 23:33N 29°55' W 089°55'0 0.0
2016-Jun-29 22:33N 29°55' W 089°55'0 0.0
2016-Jun-29 21:33N 29°55' W 089°55'0 0.0
2016-Jun-29 20:34N 29°55' W 089°55'0 0.1
2016-Jun-29 19:33N 29°55' W 089°55'0 0.0
2016-Jun-29 18:34N 29°55' W 089°55'3 2.8
2016-Jun-29 17:33N 29°52' W 089°56'4 3.8
2016-Jun-29 16:33N 29°50' W 089°60'6 5.0
2016-Jun-29 15:24N 29°44' W 089°60'2 0.2
2016-Jun-29 03:32N 29°46' W 090°01'7 7.4
2016-Jun-29 02:32N 29°53' W 089°58'4 3.9
2016-Jun-29 01:34N 29°55' W 089°55'4 3.6
2016-Jun-29 00:34N 29°56' W 089°59'0 0.1
2016-Jun-28 23:34N 29°56' W 089°59'0 0.0
2016-Jun-28 22:34N 29°56' W 089°59'0 0.0
2016-Jun-28 21:33N 29°56' W 089°59'0 0.0
2016-Jun-28 20:34N 29°56' W 089°59'1 1.0
2016-Jun-28 19:34N 29°57' W 090°00'0 0.3
2016-Jun-28 18:33N 29°57' W 090°01'0 0.2
2016-Jun-28 17:33N 29°57' W 090°01'2 2.5
2016-Jun-28 16:34N 29°56' W 090°03'5 4.6
2016-Jun-28 15:34N 29°57' W 090°09'4 3.8
2016-Jun-28 14:33N 29°55' W 090°13'1 0.0
2016-Jun-27 08:33N 29°56' W 090°12'0 0.0
2016-Jun-27 07:33N 29°56' W 090°12'0 0.1
2016-Jun-27 06:34N 29°56' W 090°12'3 3.2
2016-Jun-27 05:33N 29°55' W 090°08'5 5.3
2016-Jun-27 04:33N 29°57' W 090°03'6 5.9
2016-Jun-27 03:33N 29°55' W 089°56'3 3.1
2016-Jun-27 02:33N 29°52' W 089°56'4 4.0
2016-Jun-27 01:34N 29°50' W 089°60'6 0.9
2016-Jun-26 19:13N 29°44' W 089°60'4 5.7
2016-Jun-26 18:31N 29°48' W 090°01'6 5.9
2016-Jun-26 17:34N 29°53' W 089°57'3 2.7
2016-Jun-26 16:33N 29°55' W 089°56'7 6.6
2016-Jun-26 15:33N 29°58' W 090°03'5 5.1
2016-Jun-26 14:34N 29°55' W 090°08'2 2.3
2016-Jun-26 13:32N 29°57' W 090°10'4 3.5
2016-Jun-26 12:19N 29°58' W 090°15'  
2016-Jun-24 04:26N 29°56' W 090°12'0 0.0
2016-Jun-24 03:33N 29°56' W 090°12'0 0.0
2016-Jun-24 02:17N 29°56' W 090°12'0 0.0
2016-Jun-24 01:31N 29°56' W 090°12'2 1.6
2016-Jun-24 00:32N 29°57' W 090°10'3 3.1
2016-Jun-23 23:33N 29°55' W 090°07'4 4.1
2016-Jun-23 22:33N 29°57' W 090°03'3 2.5
2016-Jun-23 21:34N 29°57' W 090°01'6 4.0
2016-Jun-23 20:08N 29°54' W 089°55'2 3.6
2016-Jun-23 19:32N 29°52' W 089°55'6 3.1
2016-Jun-23 17:33N 29°48' W 090°01'0 0.0
2016-Jun-23 16:33N 29°48' W 090°01'0 0.0
2016-Jun-23 15:33N 29°48' W 090°01'0 0.0
2016-Jun-23 14:33N 29°48' W 090°01'1 1.2
2016-Jun-23 13:34N 29°47' W 090°01'3 0.5
2016-Jun-23 08:04N 29°44' W 089°60'5 7.0
2016-Jun-23 07:25N 29°49' W 090°00'8 4.1
2016-Jun-23 05:34N 29°56' W 089°60'6 6.4
2016-Jun-23 04:33N 29°55' W 090°07'4 4.3
2016-Jun-23 03:34N 29°56' W 090°12'0 0.0
2016-Jun-23 02:33N 29°56' W 090°12'0 0.0
2016-Jun-23 01:33N 29°56' W 090°12'0 0.0
2016-Jun-23 00:16N 29°56' W 090°12'0 0.3
2016-Jun-22 23:33N 29°56' W 090°11'1 1.0
2016-Jun-22 22:34N 29°56' W 090°11'0 0.0
2016-Jun-22 21:33N 29°56' W 090°11'0 0.4
2016-Jun-22 20:31N 29°56' W 090°11'3 2.6
2016-Jun-22 19:22N 29°58' W 090°14'  

Dump ship's entire track history